sensor_id;sensor_type;location;lat;lon;timestamp;P1;durP1;ratioP1;P2;durP2;ratioP2
79149;SDS011;68563;45.644;13.782;2023-12-20T00:01:40;6.97;;;4.93;;
79149;SDS011;68563;45.644;13.782;2023-12-20T00:04:05;10.45;;;5.70;;
79149;SDS011;68563;45.644;13.782;2023-12-20T00:06:31;7.82;;;4.88;;
79149;SDS011;68563;45.644;13.782;2023-12-20T00:08:56;7.85;;;4.65;;
79149;SDS011;68563;45.644;13.782;2023-12-20T00:11:23;6.85;;;4.40;;
79149;SDS011;68563;45.644;13.782;2023-12-20T00:13:48;6.97;;;4.43;;
79149;SDS011;68563;45.644;13.782;2023-12-20T00:16:14;7.30;;;4.00;;
79149;SDS011;68563;45.644;13.782;2023-12-20T00:18:39;6.60;;;3.60;;
79149;SDS011;68563;45.644;13.782;2023-12-20T00:21:05;5.95;;;3.90;;
79149;SDS011;68563;45.644;13.782;2023-12-20T00:23:30;5.78;;;3.20;;
79149;SDS011;68563;45.644;13.782;2023-12-20T00:25:55;6.28;;;3.28;;
79149;SDS011;68563;45.644;13.782;2023-12-20T00:28:21;6.47;;;3.33;;
79149;SDS011;68563;45.644;13.782;2023-12-20T00:30:47;7.75;;;3.03;;
79149;SDS011;68563;45.644;13.782;2023-12-20T00:33:13;5.30;;;3.33;;
79149;SDS011;68563;45.644;13.782;2023-12-20T00:35:38;6.65;;;3.00;;
79149;SDS011;68563;45.644;13.782;2023-12-20T00:38:04;4.90;;;3.10;;
79149;SDS011;68563;45.644;13.782;2023-12-20T00:40:31;4.30;;;2.60;;
79149;SDS011;68563;45.644;13.782;2023-12-20T00:42:58;4.57;;;2.67;;
79149;SDS011;68563;45.644;13.782;2023-12-20T00:45:23;4.65;;;2.70;;
79149;SDS011;68563;45.644;13.782;2023-12-20T00:47:48;6.13;;;3.63;;
79149;SDS011;68563;45.644;13.782;2023-12-20T00:50:14;5.20;;;3.03;;
79149;SDS011;68563;45.644;13.782;2023-12-20T00:52:39;4.78;;;3.30;;
79149;SDS011;68563;45.644;13.782;2023-12-20T00:55:05;6.15;;;3.30;;
79149;SDS011;68563;45.644;13.782;2023-12-20T00:57:30;6.82;;;3.05;;
79149;SDS011;68563;45.644;13.782;2023-12-20T00:59:56;4.85;;;2.97;;
79149;SDS011;68563;45.644;13.782;2023-12-20T01:02:21;7.70;;;3.65;;
79149;SDS011;68563;45.644;13.782;2023-12-20T01:04:47;4.60;;;2.92;;
79149;SDS011;68563;45.644;13.782;2023-12-20T01:07:12;4.68;;;2.80;;
79149;SDS011;68563;45.644;13.782;2023-12-20T01:09:37;4.65;;;2.60;;
79149;SDS011;68563;45.644;13.782;2023-12-20T01:12:03;5.57;;;2.75;;
79149;SDS011;68563;45.644;13.782;2023-12-20T01:14:28;4.30;;;2.53;;
79149;SDS011;68563;45.644;13.782;2023-12-20T01:16:54;4.35;;;2.40;;
79149;SDS011;68563;45.644;13.782;2023-12-20T01:19:19;4.22;;;2.53;;
79149;SDS011;68563;45.644;13.782;2023-12-20T01:21:45;3.75;;;2.40;;
79149;SDS011;68563;45.644;13.782;2023-12-20T01:24:10;4.32;;;2.78;;
79149;SDS011;68563;45.644;13.782;2023-12-20T01:26:35;4.05;;;2.60;;
79149;SDS011;68563;45.644;13.782;2023-12-20T01:29:01;5.28;;;3.00;;
79149;SDS011;68563;45.644;13.782;2023-12-20T01:31:26;3.63;;;2.60;;
79149;SDS011;68563;45.644;13.782;2023-12-20T01:33:52;3.50;;;2.33;;
79149;SDS011;68563;45.644;13.782;2023-12-20T01:36:17;4.95;;;3.05;;
79149;SDS011;68563;45.644;13.782;2023-12-20T01:38:43;4.32;;;3.05;;
79149;SDS011;68563;45.644;13.782;2023-12-20T01:41:08;3.58;;;2.45;;
79149;SDS011;68563;45.644;13.782;2023-12-20T01:43:34;4.50;;;3.03;;
79149;SDS011;68563;45.644;13.782;2023-12-20T01:45:59;4.07;;;2.47;;
79149;SDS011;68563;45.644;13.782;2023-12-20T01:48:25;4.68;;;2.70;;
79149;SDS011;68563;45.644;13.782;2023-12-20T01:50:52;5.03;;;2.58;;
79149;SDS011;68563;45.644;13.782;2023-12-20T01:53:19;3.63;;;2.22;;
79149;SDS011;68563;45.644;13.782;2023-12-20T01:58:15;4.00;;;2.55;;
79149;SDS011;68563;45.644;13.782;2023-12-20T02:00:42;4.30;;;2.40;;
79149;SDS011;68563;45.644;13.782;2023-12-20T02:03:07;4.10;;;2.38;;
79149;SDS011;68563;45.644;13.782;2023-12-20T02:05:34;3.05;;;2.17;;
79149;SDS011;68563;45.644;13.782;2023-12-20T02:08:01;3.92;;;2.03;;
79149;SDS011;68563;45.644;13.782;2023-12-20T02:10:27;3.40;;;2.20;;
79149;SDS011;68563;45.644;13.782;2023-12-20T02:12:52;5.30;;;1.88;;
79149;SDS011;68563;45.644;13.782;2023-12-20T02:15:18;3.55;;;2.10;;
79149;SDS011;68563;45.644;13.782;2023-12-20T02:17:44;4.18;;;2.20;;
79149;SDS011;68563;45.644;13.782;2023-12-20T02:20:11;3.75;;;2.30;;
79149;SDS011;68563;45.644;13.782;2023-12-20T02:22:36;4.95;;;2.17;;
79149;SDS011;68563;45.644;13.782;2023-12-20T02:25:02;3.13;;;2.15;;
79149;SDS011;68563;45.644;13.782;2023-12-20T02:27:27;5.93;;;2.47;;
79149;SDS011;68563;45.644;13.782;2023-12-20T02:29:55;3.67;;;2.40;;
79149;SDS011;68563;45.644;13.782;2023-12-20T02:32:21;4.00;;;2.30;;
79149;SDS011;68563;45.644;13.782;2023-12-20T02:37:16;4.47;;;2.27;;
79149;SDS011;68563;45.644;13.782;2023-12-20T02:39:41;4.22;;;1.88;;
79149;SDS011;68563;45.644;13.782;2023-12-20T02:42:07;2.75;;;1.80;;
79149;SDS011;68563;45.644;13.782;2023-12-20T02:44:32;3.28;;;1.77;;
79149;SDS011;68563;45.644;13.782;2023-12-20T02:46:57;5.63;;;1.95;;
79149;SDS011;68563;45.644;13.782;2023-12-20T02:49:23;2.95;;;1.77;;
79149;SDS011;68563;45.644;13.782;2023-12-20T02:51:48;3.50;;;1.90;;
79149;SDS011;68563;45.644;13.782;2023-12-20T02:54:14;3.20;;;2.20;;
79149;SDS011;68563;45.644;13.782;2023-12-20T02:56:39;2.90;;;1.85;;
79149;SDS011;68563;45.644;13.782;2023-12-20T02:59:04;3.10;;;1.70;;
79149;SDS011;68563;45.644;13.782;2023-12-20T03:01:41;2.75;;;2.00;;
79149;SDS011;68563;45.644;13.782;2023-12-20T03:04:08;3.25;;;2.33;;
79149;SDS011;68563;45.644;13.782;2023-12-20T03:06:33;3.13;;;2.00;;
79149;SDS011;68563;45.644;13.782;2023-12-20T03:08:58;2.55;;;1.52;;
79149;SDS011;68563;45.644;13.782;2023-12-20T03:11:26;3.97;;;2.40;;
79149;SDS011;68563;45.644;13.782;2023-12-20T03:13:52;3.47;;;2.10;;
79149;SDS011;68563;45.644;13.782;2023-12-20T03:16:17;3.53;;;2.10;;
79149;SDS011;68563;45.644;13.782;2023-12-20T03:18:43;3.45;;;1.90;;
79149;SDS011;68563;45.644;13.782;2023-12-20T03:21:09;3.15;;;2.00;;
79149;SDS011;68563;45.644;13.782;2023-12-20T03:23:34;3.78;;;2.17;;
79149;SDS011;68563;45.644;13.782;2023-12-20T03:25:59;2.97;;;1.67;;
79149;SDS011;68563;45.644;13.782;2023-12-20T03:28:26;2.58;;;1.80;;
79149;SDS011;68563;45.644;13.782;2023-12-20T03:30:51;3.05;;;1.90;;
79149;SDS011;68563;45.644;13.782;2023-12-20T03:33:17;2.83;;;2.00;;
79149;SDS011;68563;45.644;13.782;2023-12-20T03:35:42;3.72;;;1.95;;
79149;SDS011;68563;45.644;13.782;2023-12-20T03:38:08;3.00;;;1.95;;
79149;SDS011;68563;45.644;13.782;2023-12-20T03:40:33;2.78;;;1.92;;
79149;SDS011;68563;45.644;13.782;2023-12-20T03:42:59;4.25;;;2.15;;
79149;SDS011;68563;45.644;13.782;2023-12-20T03:45:24;4.90;;;2.47;;
79149;SDS011;68563;45.644;13.782;2023-12-20T03:47:50;4.22;;;2.35;;
79149;SDS011;68563;45.644;13.782;2023-12-20T03:50:20;4.47;;;2.80;;
79149;SDS011;68563;45.644;13.782;2023-12-20T03:52:46;4.57;;;2.88;;
79149;SDS011;68563;45.644;13.782;2023-12-20T03:55:11;4.35;;;2.83;;
79149;SDS011;68563;45.644;13.782;2023-12-20T03:57:36;4.25;;;2.70;;
79149;SDS011;68563;45.644;13.782;2023-12-20T04:00:02;4.75;;;3.08;;
79149;SDS011;68563;45.644;13.782;2023-12-20T04:02:27;4.63;;;2.95;;
79149;SDS011;68563;45.644;13.782;2023-12-20T04:04:53;5.95;;;3.20;;
79149;SDS011;68563;45.644;13.782;2023-12-20T04:07:18;4.90;;;2.85;;
79149;SDS011;68563;45.644;13.782;2023-12-20T04:09:43;7.05;;;3.30;;
79149;SDS011;68563;45.644;13.782;2023-12-20T04:12:09;4.82;;;3.15;;
79149;SDS011;68563;45.644;13.782;2023-12-20T04:14:34;4.43;;;2.80;;
79149;SDS011;68563;45.644;13.782;2023-12-20T04:17:00;3.88;;;2.47;;
79149;SDS011;68563;45.644;13.782;2023-12-20T04:19:25;3.92;;;2.55;;
79149;SDS011;68563;45.644;13.782;2023-12-20T04:21:50;4.88;;;2.47;;
79149;SDS011;68563;45.644;13.782;2023-12-20T04:24:16;6.55;;;2.85;;
79149;SDS011;68563;45.644;13.782;2023-12-20T04:26:41;4.57;;;2.83;;
79149;SDS011;68563;45.644;13.782;2023-12-20T04:29:06;4.00;;;2.97;;
79149;SDS011;68563;45.644;13.782;2023-12-20T04:31:32;5.57;;;2.80;;
79149;SDS011;68563;45.644;13.782;2023-12-20T04:33:57;4.88;;;2.90;;
79149;SDS011;68563;45.644;13.782;2023-12-20T04:36:23;4.85;;;2.83;;
79149;SDS011;68563;45.644;13.782;2023-12-20T04:38:50;6.38;;;2.90;;
79149;SDS011;68563;45.644;13.782;2023-12-20T04:41:15;4.40;;;2.78;;
79149;SDS011;68563;45.644;13.782;2023-12-20T04:43:41;4.50;;;3.08;;
79149;SDS011;68563;45.644;13.782;2023-12-20T04:46:06;6.47;;;3.35;;
79149;SDS011;68563;45.644;13.782;2023-12-20T04:48:32;4.68;;;3.47;;
79149;SDS011;68563;45.644;13.782;2023-12-20T04:50:57;7.32;;;3.67;;
79149;SDS011;68563;45.644;13.782;2023-12-20T04:53:22;6.10;;;3.97;;
79149;SDS011;68563;45.644;13.782;2023-12-20T04:55:48;5.45;;;3.88;;
79149;SDS011;68563;45.644;13.782;2023-12-20T04:58:13;6.13;;;4.10;;
79149;SDS011;68563;45.644;13.782;2023-12-20T05:00:38;5.72;;;3.92;;
79149;SDS011;68563;45.644;13.782;2023-12-20T05:03:05;5.88;;;3.83;;
79149;SDS011;68563;45.644;13.782;2023-12-20T05:05:30;5.93;;;4.00;;
79149;SDS011;68563;45.644;13.782;2023-12-20T05:07:57;5.65;;;3.78;;
79149;SDS011;68563;45.644;13.782;2023-12-20T05:10:22;5.00;;;3.45;;
79149;SDS011;68563;45.644;13.782;2023-12-20T05:12:47;5.43;;;3.30;;
79149;SDS011;68563;45.644;13.782;2023-12-20T05:15:13;5.20;;;3.40;;
79149;SDS011;68563;45.644;13.782;2023-12-20T05:17:38;4.57;;;3.00;;
79149;SDS011;68563;45.644;13.782;2023-12-20T05:20:04;4.82;;;3.38;;
79149;SDS011;68563;45.644;13.782;2023-12-20T05:22:30;4.80;;;3.10;;
79149;SDS011;68563;45.644;13.782;2023-12-20T05:24:55;5.15;;;3.40;;
79149;SDS011;68563;45.644;13.782;2023-12-20T05:27:20;7.80;;;3.80;;
79149;SDS011;68563;45.644;13.782;2023-12-20T05:29:46;5.07;;;3.72;;
79149;SDS011;68563;45.644;13.782;2023-12-20T05:32:11;7.35;;;3.92;;
79149;SDS011;68563;45.644;13.782;2023-12-20T05:34:36;7.38;;;3.97;;
79149;SDS011;68563;45.644;13.782;2023-12-20T05:37:02;5.45;;;3.47;;
79149;SDS011;68563;45.644;13.782;2023-12-20T05:39:27;5.10;;;3.38;;
79149;SDS011;68563;45.644;13.782;2023-12-20T05:41:53;4.85;;;3.20;;
79149;SDS011;68563;45.644;13.782;2023-12-20T05:44:19;5.25;;;2.90;;
79149;SDS011;68563;45.644;13.782;2023-12-20T05:46:44;4.60;;;2.85;;
79149;SDS011;68563;45.644;13.782;2023-12-20T05:49:09;5.72;;;2.80;;
79149;SDS011;68563;45.644;13.782;2023-12-20T05:51:35;4.70;;;2.90;;
79149;SDS011;68563;45.644;13.782;2023-12-20T05:54:01;6.82;;;3.00;;
79149;SDS011;68563;45.644;13.782;2023-12-20T05:56:26;4.75;;;2.95;;
79149;SDS011;68563;45.644;13.782;2023-12-20T05:58:52;4.32;;;2.88;;
79149;SDS011;68563;45.644;13.782;2023-12-20T06:01:17;6.45;;;3.40;;
79149;SDS011;68563;45.644;13.782;2023-12-20T06:03:43;5.68;;;3.33;;
79149;SDS011;68563;45.644;13.782;2023-12-20T06:06:08;6.75;;;4.78;;
79149;SDS011;68563;45.644;13.782;2023-12-20T06:08:34;7.47;;;4.38;;
79149;SDS011;68563;45.644;13.782;2023-12-20T06:11:00;8.23;;;4.82;;
79149;SDS011;68563;45.644;13.782;2023-12-20T06:13:26;8.60;;;4.97;;
79149;SDS011;68563;45.644;13.782;2023-12-20T06:15:52;9.43;;;4.25;;
79149;SDS011;68563;45.644;13.782;2023-12-20T06:18:17;7.68;;;5.18;;
79149;SDS011;68563;45.644;13.782;2023-12-20T06:20:42;7.60;;;4.85;;
79149;SDS011;68563;45.644;13.782;2023-12-20T06:23:09;12.38;;;5.30;;
79149;SDS011;68563;45.644;13.782;2023-12-20T06:25:35;8.05;;;4.95;;
79149;SDS011;68563;45.644;13.782;2023-12-20T06:28:00;7.65;;;4.97;;
79149;SDS011;68563;45.644;13.782;2023-12-20T06:30:25;7.47;;;4.80;;
79149;SDS011;68563;45.644;13.782;2023-12-20T06:32:52;9.90;;;4.63;;
79149;SDS011;68563;45.644;13.782;2023-12-20T06:35:18;6.70;;;4.25;;
79149;SDS011;68563;45.644;13.782;2023-12-20T06:37:44;7.25;;;4.57;;
79149;SDS011;68563;45.644;13.782;2023-12-20T06:40:10;7.20;;;4.53;;
79149;SDS011;68563;45.644;13.782;2023-12-20T06:42:35;7.32;;;4.30;;
79149;SDS011;68563;45.644;13.782;2023-12-20T06:45:01;10.07;;;4.30;;
79149;SDS011;68563;45.644;13.782;2023-12-20T06:47:27;7.75;;;5.30;;
79149;SDS011;68563;45.644;13.782;2023-12-20T06:49:52;6.93;;;4.97;;
79149;SDS011;68563;45.644;13.782;2023-12-20T06:52:18;7.53;;;5.10;;
79149;SDS011;68563;45.644;13.782;2023-12-20T06:54:43;8.55;;;4.80;;
79149;SDS011;68563;45.644;13.782;2023-12-20T06:57:08;11.07;;;4.72;;
79149;SDS011;68563;45.644;13.782;2023-12-20T06:59:38;8.25;;;4.40;;
79149;SDS011;68563;45.644;13.782;2023-12-20T07:02:06;11.40;;;4.63;;
79149;SDS011;68563;45.644;13.782;2023-12-20T07:04:33;13.80;;;5.40;;
79149;SDS011;68563;45.644;13.782;2023-12-20T07:06:58;14.00;;;5.35;;
79149;SDS011;68563;45.644;13.782;2023-12-20T07:09:25;9.55;;;5.28;;
79149;SDS011;68563;45.644;13.782;2023-12-20T07:11:51;22.70;;;6.30;;
79149;SDS011;68563;45.644;13.782;2023-12-20T07:14:17;13.82;;;4.75;;
79149;SDS011;68563;45.644;13.782;2023-12-20T07:16:42;10.10;;;4.68;;
79149;SDS011;68563;45.644;13.782;2023-12-20T07:19:08;9.30;;;4.43;;
79149;SDS011;68563;45.644;13.782;2023-12-20T07:21:33;13.27;;;4.57;;
79149;SDS011;68563;45.644;13.782;2023-12-20T07:23:58;20.10;;;3.92;;
79149;SDS011;68563;45.644;13.782;2023-12-20T07:26:24;11.75;;;4.40;;
79149;SDS011;68563;45.644;13.782;2023-12-20T07:28:49;9.70;;;4.30;;
79149;SDS011;68563;45.644;13.782;2023-12-20T07:31:15;13.25;;;4.00;;
79149;SDS011;68563;45.644;13.782;2023-12-20T07:33:41;6.13;;;3.90;;
79149;SDS011;68563;45.644;13.782;2023-12-20T07:36:06;9.82;;;4.20;;
79149;SDS011;68563;45.644;13.782;2023-12-20T07:38:32;7.35;;;4.35;;
79149;SDS011;68563;45.644;13.782;2023-12-20T07:40:58;7.43;;;3.75;;
79149;SDS011;68563;45.644;13.782;2023-12-20T07:43:23;5.63;;;3.88;;
79149;SDS011;68563;45.644;13.782;2023-12-20T07:45:49;9.68;;;4.50;;
79149;SDS011;68563;45.644;13.782;2023-12-20T07:48:14;8.63;;;4.25;;
79149;SDS011;68563;45.644;13.782;2023-12-20T07:50:39;12.02;;;4.60;;
79149;SDS011;68563;45.644;13.782;2023-12-20T07:53:05;8.20;;;4.45;;
79149;SDS011;68563;45.644;13.782;2023-12-20T07:55:32;10.20;;;4.50;;
79149;SDS011;68563;45.644;13.782;2023-12-20T07:57:59;9.27;;;4.55;;
79149;SDS011;68563;45.644;13.782;2023-12-20T08:00:25;10.75;;;5.25;;
79149;SDS011;68563;45.644;13.782;2023-12-20T08:02:52;12.30;;;5.13;;
79149;SDS011;68563;45.644;13.782;2023-12-20T08:05:17;12.75;;;6.85;;
79149;SDS011;68563;45.644;13.782;2023-12-20T08:07:43;8.95;;;5.60;;
79149;SDS011;68563;45.644;13.782;2023-12-20T08:10:08;8.38;;;4.75;;
79149;SDS011;68563;45.644;13.782;2023-12-20T08:12:34;10.57;;;5.50;;
79149;SDS011;68563;45.644;13.782;2023-12-20T08:14:59;15.75;;;5.40;;
79149;SDS011;68563;45.644;13.782;2023-12-20T08:17:25;8.00;;;5.05;;
79149;SDS011;68563;45.644;13.782;2023-12-20T08:19:50;16.40;;;5.07;;
79149;SDS011;68563;45.644;13.782;2023-12-20T08:22:16;11.48;;;5.03;;
79149;SDS011;68563;45.644;13.782;2023-12-20T08:24:42;10.18;;;5.00;;
79149;SDS011;68563;45.644;13.782;2023-12-20T08:27:07;16.77;;;5.30;;
79149;SDS011;68563;45.644;13.782;2023-12-20T08:29:34;7.55;;;5.25;;
79149;SDS011;68563;45.644;13.782;2023-12-20T08:32:00;10.48;;;5.32;;
79149;SDS011;68563;45.644;13.782;2023-12-20T08:34:25;10.38;;;5.35;;
79149;SDS011;68563;45.644;13.782;2023-12-20T08:36:51;13.35;;;5.50;;
79149;SDS011;68563;45.644;13.782;2023-12-20T08:39:16;9.90;;;5.53;;
79149;SDS011;68563;45.644;13.782;2023-12-20T08:41:42;9.60;;;6.15;;
79149;SDS011;68563;45.644;13.782;2023-12-20T08:44:07;13.60;;;6.55;;
79149;SDS011;68563;45.644;13.782;2023-12-20T08:46:33;13.20;;;5.93;;
79149;SDS011;68563;45.644;13.782;2023-12-20T08:48:58;10.02;;;5.70;;
79149;SDS011;68563;45.644;13.782;2023-12-20T08:51:25;7.53;;;5.05;;
79149;SDS011;68563;45.644;13.782;2023-12-20T08:53:51;12.73;;;5.18;;
79149;SDS011;68563;45.644;13.782;2023-12-20T08:56:16;9.25;;;5.38;;
79149;SDS011;68563;45.644;13.782;2023-12-20T08:58:43;12.70;;;5.75;;
79149;SDS011;68563;45.644;13.782;2023-12-20T09:01:08;8.70;;;5.18;;
79149;SDS011;68563;45.644;13.782;2023-12-20T09:03:34;15.13;;;4.95;;
79149;SDS011;68563;45.644;13.782;2023-12-20T09:05:59;19.02;;;6.18;;
79149;SDS011;68563;45.644;13.782;2023-12-20T09:08:25;11.85;;;7.00;;
79149;SDS011;68563;45.644;13.782;2023-12-20T09:10:50;11.98;;;8.00;;
79149;SDS011;68563;45.644;13.782;2023-12-20T09:13:15;14.88;;;7.75;;
79149;SDS011;68563;45.644;13.782;2023-12-20T09:15:41;14.90;;;7.25;;
79149;SDS011;68563;45.644;13.782;2023-12-20T09:18:07;18.45;;;7.70;;
79149;SDS011;68563;45.644;13.782;2023-12-20T09:20:33;11.73;;;5.97;;
79149;SDS011;68563;45.644;13.782;2023-12-20T09:22:58;11.38;;;6.55;;
79149;SDS011;68563;45.644;13.782;2023-12-20T09:25:24;20.40;;;8.20;;
79149;SDS011;68563;45.644;13.782;2023-12-20T09:27:51;13.15;;;6.35;;
79149;SDS011;68563;45.644;13.782;2023-12-20T09:30:17;10.82;;;5.93;;
79149;SDS011;68563;45.644;13.782;2023-12-20T09:32:43;13.75;;;5.50;;
79149;SDS011;68563;45.644;13.782;2023-12-20T09:35:09;8.40;;;5.68;;
79149;SDS011;68563;45.644;13.782;2023-12-20T09:37:34;9.93;;;5.93;;
79149;SDS011;68563;45.644;13.782;2023-12-20T09:40:00;12.73;;;7.03;;
79149;SDS011;68563;45.644;13.782;2023-12-20T09:45:08;10.48;;;6.70;;
79149;SDS011;68563;45.644;13.782;2023-12-20T09:47:35;13.43;;;7.75;;
79149;SDS011;68563;45.644;13.782;2023-12-20T09:50:01;15.55;;;7.05;;
79149;SDS011;68563;45.644;13.782;2023-12-20T09:52:27;12.73;;;6.25;;
79149;SDS011;68563;45.644;13.782;2023-12-20T09:54:54;13.98;;;6.82;;
79149;SDS011;68563;45.644;13.782;2023-12-20T09:57:22;12.25;;;6.65;;
79149;SDS011;68563;45.644;13.782;2023-12-20T09:59:47;13.93;;;6.38;;
79149;SDS011;68563;45.644;13.782;2023-12-20T10:02:13;9.52;;;5.70;;
79149;SDS011;68563;45.644;13.782;2023-12-20T10:04:42;13.27;;;5.60;;
79149;SDS011;68563;45.644;13.782;2023-12-20T10:07:15;10.88;;;5.47;;
79149;SDS011;68563;45.644;13.782;2023-12-20T10:09:41;10.40;;;5.60;;
79149;SDS011;68563;45.644;13.782;2023-12-20T10:12:07;12.75;;;6.25;;
79149;SDS011;68563;45.644;13.782;2023-12-20T10:14:32;7.85;;;4.35;;
79149;SDS011;68563;45.644;13.782;2023-12-20T10:17:04;11.02;;;5.35;;
79149;SDS011;68563;45.644;13.782;2023-12-20T10:19:31;9.57;;;4.50;;
79149;SDS011;68563;45.644;13.782;2023-12-20T10:22:00;7.57;;;4.65;;
79149;SDS011;68563;45.644;13.782;2023-12-20T10:24:25;7.78;;;4.88;;
79149;SDS011;68563;45.644;13.782;2023-12-20T10:27:01;7.07;;;4.13;;
79149;SDS011;68563;45.644;13.782;2023-12-20T10:31:59;7.13;;;3.50;;
79149;SDS011;68563;45.644;13.782;2023-12-20T10:34:25;5.70;;;3.88;;
79149;SDS011;68563;45.644;13.782;2023-12-20T10:36:50;9.38;;;4.50;;
79149;SDS011;68563;45.644;13.782;2023-12-20T10:39:17;6.72;;;3.78;;
79149;SDS011;68563;45.644;13.782;2023-12-20T10:41:43;8.00;;;3.70;;
79149;SDS011;68563;45.644;13.782;2023-12-20T10:44:10;6.05;;;3.88;;
79149;SDS011;68563;45.644;13.782;2023-12-20T10:46:36;6.78;;;4.70;;
79149;SDS011;68563;45.644;13.782;2023-12-20T10:49:05;5.82;;;4.00;;
79149;SDS011;68563;45.644;13.782;2023-12-20T10:51:31;5.63;;;3.78;;
79149;SDS011;68563;45.644;13.782;2023-12-20T10:54:00;5.90;;;4.05;;
79149;SDS011;68563;45.644;13.782;2023-12-20T10:56:25;7.20;;;4.20;;
79149;SDS011;68563;45.644;13.782;2023-12-20T10:59:01;8.00;;;4.85;;
79149;SDS011;68563;45.644;13.782;2023-12-20T11:01:30;10.68;;;5.55;;
79149;SDS011;68563;45.644;13.782;2023-12-20T11:03:56;7.53;;;5.78;;
79149;SDS011;68563;45.644;13.782;2023-12-20T11:09:00;7.13;;;4.65;;
79149;SDS011;68563;45.644;13.782;2023-12-20T11:14:28;7.05;;;4.68;;
79149;SDS011;68563;45.644;13.782;2023-12-20T11:17:09;7.40;;;4.30;;
79149;SDS011;68563;45.644;13.782;2023-12-20T11:22:30;7.47;;;4.57;;
79149;SDS011;68563;45.644;13.782;2023-12-20T11:25:14;10.30;;;5.88;;
79149;SDS011;68563;45.644;13.782;2023-12-20T11:27:42;9.55;;;7.13;;
79149;SDS011;68563;45.644;13.782;2023-12-20T11:30:08;8.77;;;6.00;;
79149;SDS011;68563;45.644;13.782;2023-12-20T11:32:35;6.80;;;4.95;;
79149;SDS011;68563;45.644;13.782;2023-12-20T11:37:36;8.05;;;4.82;;
79149;SDS011;68563;45.644;13.782;2023-12-20T11:40:05;7.50;;;5.03;;
79149;SDS011;68563;45.644;13.782;2023-12-20T11:42:38;10.23;;;6.18;;
79149;SDS011;68563;45.644;13.782;2023-12-20T11:45:05;13.25;;;8.20;;
79149;SDS011;68563;45.644;13.782;2023-12-20T11:47:33;8.68;;;6.13;;
79149;SDS011;68563;45.644;13.782;2023-12-20T11:50:00;11.82;;;6.88;;
79149;SDS011;68563;45.644;13.782;2023-12-20T11:52:28;9.27;;;6.10;;
79149;SDS011;68563;45.644;13.782;2023-12-20T11:54:54;19.13;;;7.55;;
79149;SDS011;68563;45.644;13.782;2023-12-20T11:57:19;16.60;;;8.38;;
79149;SDS011;68563;45.644;13.782;2023-12-20T11:59:45;15.38;;;7.78;;
79149;SDS011;68563;45.644;13.782;2023-12-20T12:02:11;11.15;;;6.78;;
79149;SDS011;68563;45.644;13.782;2023-12-20T12:04:37;15.80;;;5.97;;
79149;SDS011;68563;45.644;13.782;2023-12-20T12:07:02;10.10;;;6.07;;
79149;SDS011;68563;45.644;13.782;2023-12-20T12:09:28;9.13;;;5.13;;
79149;SDS011;68563;45.644;13.782;2023-12-20T12:11:54;8.10;;;4.43;;
79149;SDS011;68563;45.644;13.782;2023-12-20T12:14:19;11.23;;;6.18;;
79149;SDS011;68563;45.644;13.782;2023-12-20T12:16:45;11.32;;;5.97;;
79149;SDS011;68563;45.644;13.782;2023-12-20T12:19:21;9.27;;;5.40;;
79149;SDS011;68563;45.644;13.782;2023-12-20T12:21:50;9.55;;;5.32;;
79149;SDS011;68563;45.644;13.782;2023-12-20T12:24:20;7.70;;;5.13;;
79149;SDS011;68563;45.644;13.782;2023-12-20T12:26:50;10.23;;;5.68;;
79149;SDS011;68563;45.644;13.782;2023-12-20T12:29:16;11.18;;;5.88;;
79149;SDS011;68563;45.644;13.782;2023-12-20T12:31:41;18.55;;;7.40;;
79149;SDS011;68563;45.644;13.782;2023-12-20T12:34:07;13.27;;;7.22;;
79149;SDS011;68563;45.644;13.782;2023-12-20T12:36:34;14.95;;;8.35;;
79149;SDS011;68563;45.644;13.782;2023-12-20T12:39:02;20.55;;;9.48;;
79149;SDS011;68563;45.644;13.782;2023-12-20T12:43:55;14.38;;;8.73;;
79149;SDS011;68563;45.644;13.782;2023-12-20T12:46:20;12.60;;;8.25;;
79149;SDS011;68563;45.644;13.782;2023-12-20T12:48:46;11.73;;;8.05;;
79149;SDS011;68563;45.644;13.782;2023-12-20T12:51:12;11.73;;;7.57;;
79149;SDS011;68563;45.644;13.782;2023-12-20T12:53:38;11.57;;;7.22;;
79149;SDS011;68563;45.644;13.782;2023-12-20T12:56:04;10.13;;;6.72;;
79149;SDS011;68563;45.644;13.782;2023-12-20T12:58:30;14.80;;;7.05;;
79149;SDS011;68563;45.644;13.782;2023-12-20T13:00:55;9.55;;;6.13;;
79149;SDS011;68563;45.644;13.782;2023-12-20T13:03:21;9.85;;;6.30;;
79149;SDS011;68563;45.644;13.782;2023-12-20T13:05:47;9.25;;;6.35;;
79149;SDS011;68563;45.644;13.782;2023-12-20T13:08:13;9.43;;;6.03;;
79149;SDS011;68563;45.644;13.782;2023-12-20T13:10:39;10.18;;;6.80;;
79149;SDS011;68563;45.644;13.782;2023-12-20T13:13:05;11.80;;;6.60;;
79149;SDS011;68563;45.644;13.782;2023-12-20T13:15:30;12.23;;;6.28;;
79149;SDS011;68563;45.644;13.782;2023-12-20T13:17:55;9.18;;;6.28;;
79149;SDS011;68563;45.644;13.782;2023-12-20T13:20:21;10.38;;;6.53;;
79149;SDS011;68563;45.644;13.782;2023-12-20T13:22:47;11.55;;;7.18;;
79149;SDS011;68563;45.644;13.782;2023-12-20T13:25:13;12.43;;;7.43;;
79149;SDS011;68563;45.644;13.782;2023-12-20T13:27:42;14.30;;;8.02;;
79149;SDS011;68563;45.644;13.782;2023-12-20T13:30:08;14.07;;;6.57;;
79149;SDS011;68563;45.644;13.782;2023-12-20T13:32:34;10.82;;;7.07;;
79149;SDS011;68563;45.644;13.782;2023-12-20T13:35:00;14.60;;;4.68;;
79149;SDS011;68563;45.644;13.782;2023-12-20T13:37:25;10.70;;;5.47;;
79149;SDS011;68563;45.644;13.782;2023-12-20T13:39:51;9.38;;;6.18;;
79149;SDS011;68563;45.644;13.782;2023-12-20T13:42:16;9.93;;;5.95;;
79149;SDS011;68563;45.644;13.782;2023-12-20T13:44:42;10.80;;;6.47;;
79149;SDS011;68563;45.644;13.782;2023-12-20T13:47:07;7.72;;;5.32;;
79149;SDS011;68563;45.644;13.782;2023-12-20T13:49:33;9.57;;;6.50;;
79149;SDS011;68563;45.644;13.782;2023-12-20T13:52:00;12.00;;;7.47;;
79149;SDS011;68563;45.644;13.782;2023-12-20T13:54:25;13.30;;;7.55;;
79149;SDS011;68563;45.644;13.782;2023-12-20T13:56:51;9.23;;;6.85;;
79149;SDS011;68563;45.644;13.782;2023-12-20T13:59:16;14.15;;;7.60;;
79149;SDS011;68563;45.644;13.782;2023-12-20T14:01:43;12.32;;;8.80;;
79149;SDS011;68563;45.644;13.782;2023-12-20T14:04:08;14.23;;;10.02;;
79149;SDS011;68563;45.644;13.782;2023-12-20T14:06:34;17.95;;;10.32;;
79149;SDS011;68563;45.644;13.782;2023-12-20T14:09:00;22.13;;;13.32;;
79149;SDS011;68563;45.644;13.782;2023-12-20T14:11:25;19.23;;;13.23;;
79149;SDS011;68563;45.644;13.782;2023-12-20T14:13:51;20.40;;;13.50;;
79149;SDS011;68563;45.644;13.782;2023-12-20T14:16:17;22.20;;;12.57;;
79149;SDS011;68563;45.644;13.782;2023-12-20T14:18:42;13.02;;;9.23;;
79149;SDS011;68563;45.644;13.782;2023-12-20T14:21:07;17.13;;;11.82;;
79149;SDS011;68563;45.644;13.782;2023-12-20T14:23:33;17.08;;;10.98;;
79149;SDS011;68563;45.644;13.782;2023-12-20T14:25:58;15.85;;;10.32;;
79149;SDS011;68563;45.644;13.782;2023-12-20T14:28:24;14.27;;;8.80;;
79149;SDS011;68563;45.644;13.782;2023-12-20T14:30:50;15.15;;;8.32;;
79149;SDS011;68563;45.644;13.782;2023-12-20T14:33:16;12.07;;;8.55;;
79149;SDS011;68563;45.644;13.782;2023-12-20T14:35:41;11.68;;;7.38;;
79149;SDS011;68563;45.644;13.782;2023-12-20T14:38:07;11.05;;;6.00;;
79149;SDS011;68563;45.644;13.782;2023-12-20T14:40:33;12.38;;;6.63;;
79149;SDS011;68563;45.644;13.782;2023-12-20T14:42:58;13.13;;;7.53;;
79149;SDS011;68563;45.644;13.782;2023-12-20T14:45:25;10.73;;;5.93;;
79149;SDS011;68563;45.644;13.782;2023-12-20T14:47:50;7.75;;;5.60;;